This is the latest recevied weather packets stored in our database for station/object AA4XD. If no packets are shown the sender has not sent any weather packets the latest 1 day(s).
| Time | Temp. | Humidity | Pressure | Rain* | Wind** | Luminosity | Snow |
|---|---|---|---|---|---|---|---|
| 1778099186 | 32.78° C | 45% | 1014.6 hPa | 0 mm | - | 715 W/m² | - |
| 1778098579 | 33.33° C | 42% | 1014.7 hPa | 0 mm | - | 718 W/m² | - |
| 1778097972 | 33.89° C | 42% | 1014.8 hPa | 0 mm | - | 730 W/m² | - |
| 1778097669 | 33.33° C | 44% | 1014.9 hPa | 0 mm | - | 750 W/m² | - |
| 1778097062 | 33.89° C | 44% | 1014.8 hPa | 0 mm | - | 754 W/m² | - |
| 1778095547 | 33.33° C | 49% | 1014.6 hPa | 0 mm | - | 806 W/m² | - |
| 1778094940 | 33.89° C | 47% | 1014.6 hPa | 0 mm | - | 757 W/m² | - |
| 1778093424 | 33.89° C | 43% | 1015.2 hPa | 0 mm | - | 682 W/m² | - |
| 1778092514 | 32.78° C | 44% | 1015.1 hPa | 0 mm | - | 797 W/m² | - |
| 1778091000 | 33.33° C | 45% | 1015.3 hPa | 0 mm | - | 983 W/m² | - |
| 1778090393 | 32.78° C | 46% | 1015.4 hPa | 0 mm | - | 1040 W/m² | - |
| 1778089786 | 33.33° C | 48% | 1015.4 hPa | 0 mm | - | 1042 W/m² | - |
| 1778088575 | 33.33° C | 47% | 1015.5 hPa | 0 mm | - | 1087 W/m² | - |
| 1778087666 | 33.33° C | 47% | 1015.7 hPa | 0 mm | - | 1054 W/m² | - |
| 1778087364 | 32.78° C | 48% | 1015.8 hPa | 0 mm | - | 1032 W/m² | - |
| 1778087060 | 32.78° C | 50% | 1015.8 hPa | 0 mm | - | 1023 W/m² | - |
| 1778086759 | 32.22° C | 48% | 1015.9 hPa | 0 mm | - | 1060 W/m² | - |
| 1778086457 | 32.78° C | 49% | 1015.9 hPa | 0 mm | - | 1008 W/m² | - |
| 1778085849 | 32.22° C | 51% | 1015.9 hPa | 0 mm | - | 1018 W/m² | - |
| 1778084024 | 32.22° C | 51% | 1016.1 hPa | 0 mm | - | 900 W/m² | - |
| 1778081685 | 31.67° C | 56% | 1016.3 hPa | 0 mm | - | 826 W/m² | - |
| 1778081079 | 30° C | 61% | 1016.2 hPa | 0 mm | - | 835 W/m² | - |
| 1778079868 | 30° C | 59% | 1016.2 hPa | 0 mm | - | 662 W/m² | - |
| 1778078959 | 29.44° C | 61% | 1015.9 hPa | 0 mm | - | 646 W/m² | - |
| 1778077749 | 28.89° C | 63% | 1016.1 hPa | 0 mm | - | 604 W/m² | - |
* Rain latest hour (hover to see other rain measurements)
** Current wind speed in m/s (hover to see current wind gust speed)